Terminal Aerodrome Forecast
Issued by NWS Bismarck, ND

Home | Current Version | Previous Version | Graphics & Text | Print | Product List | Glossary On
Versions: 1 2 3 4 5 6 7 8 9 10 11 12 13 14 15 16 17 18 19 20 21 22 23 24
000
FTUS43 KBIS 312200 AAB
TAFBIS
TAF AMD
KBIS 312223Z 3122/0118 07016KT P6SM SCT025 OVC080
      TEMPO 3122/3124 3SM -SN OVC015
     FM010000 03018KT 3/4SM -SN BR OVC011
     FM010400 36011KT 3SM -SN OVC015
     FM011200 34014KT P6SM BKN050=

USA.gov is the U.S. government's official web portal to all federal, state and local government web resources and services.